ZLXY/XIY METAR and TAF weather

Enter ICAO airport designator
Station Type Date Time Source
ZLXY METAR 2021/05/14 04:00 UTC NOAA

ZLXY 140400Z 05007MPS CAVOK 26/18 Q1001 NOSIG


Station Type Date Time Source
ZLXY Decoded METAR 2021/05/14 04:00 UTC NOAA

Xian/Xianyang, China (ZLXY) 34-26N 108-45E
May 14, 2021 - 12:00 AM EDT / 2021.05.14 0400 UTC
Wind: from the NE (050 degrees) at 16 MPH (14 KT):0
Visibility: greater than 7 mile(s):0
Temperature: 78 F (26 C)
Dew Point: 64 F (18 C)
Relative Humidity: 61%
Pressure (altimeter): 29.56 in. Hg (1001 hPa)
ob: ZLXY 140400Z 05007MPS CAVOK 26/18 Q1001 NOSIG
cycle: 4

Station Type Date Time Source
ZLXY TAF 2021/05/14 06:05 UTC NOAA

TAF ZLXY 140310Z 1406/1506 06005MPS 3000 HZ NSC TX30/1407Z TN18/1422Z
BECMG 1411/1412 26006G12MPS TSRA FEW030CB OVC050
BECMG 1414/1415 -RA FEW030 OVC050

Example: see airport list